Time;durP1;ratioP1;P1;durP2;ratioP2;P2;SDS_P1;SDS_P2;PMS_P1;PMS_P2;Temp;Humidity;BMP_temperature;BMP_pressure;BME280_temperature;BME280_humidity;BME280_pressure;Samples;Min_cycle;Max_cycle;Signal;HPM_P1;HPM_P2
2021/08/23 00:02:39;;;;;;;5.03;2.27;;;;;;;;;;5018723;28;20220;-74
2021/08/23 00:05:43;;;;;;;4.97;2.20;;;;;;;;;;5013346;28;20197;-74
2021/08/23 00:08:47;;;;;;;7.00;2.20;;;;;;;;;;5012905;28;20181;-74
2021/08/23 00:11:51;;;;;;;4.37;2.00;;;;;;;;;;5012608;28;20221;-75
2021/08/23 00:14:56;;;;;;;2.60;1.93;;;;;;;;;;5018138;28;20197;-74
2021/08/23 00:18:00;;;;;;;5.93;2.00;;;;;;;;;;5029453;28;20671;-74
2021/08/23 00:21:11;;;;;;;4.57;2.03;;;;;;;;;;5036981;28;20216;-74
2021/08/23 00:24:21;;;;;;;2.70;1.97;;;;;;;;;;5035672;28;20193;-74
2021/08/23 00:27:30;;;;;;;4.70;2.50;;;;;;;;;;5017081;28;20209;-74
2021/08/23 00:30:45;;;;;;;3.93;1.90;;;;;;;;;;5016654;28;20217;-74
2021/08/23 00:33:49;;;;;;;4.43;2.30;;;;;;;;;;5019853;28;20200;-74
2021/08/23 00:36:53;;;;;;;6.70;2.10;;;;;;;;;;5015469;28;20197;-74
2021/08/23 00:39:57;;;;;;;5.83;2.20;;;;;;;;;;5014617;28;20178;-74
2021/08/23 00:43:02;;;;;;;4.33;1.90;;;;;;;;;;5012435;28;20189;-74
2021/08/23 00:46:07;;;;;;;4.70;2.00;;;;;;;;;;5012665;28;20185;-74
2021/08/23 00:49:11;;;;;;;3.30;2.33;;;;;;;;;;5012805;28;20548;-75
2021/08/23 00:52:15;;;;;;;5.03;2.30;;;;;;;;;;5012591;28;20221;-75
2021/08/23 00:55:19;;;;;;;4.70;2.50;;;;;;;;;;5020520;28;20208;-75
2021/08/23 00:58:23;;;;;;;4.93;2.40;;;;;;;;;;5032708;28;20192;-75
2021/08/23 01:01:34;;;;;;;5.17;2.60;;;;;;;;;;5030717;28;20224;-75
2021/08/23 01:04:46;;;;;;;4.43;2.03;;;;;;;;;;5006036;28;20193;-75
2021/08/23 01:07:59;;;;;;;8.37;2.57;;;;;;;;;;5016801;28;20213;-75
2021/08/23 01:11:05;;;;;;;3.47;2.10;;;;;;;;;;5031672;28;20225;-75
2021/08/23 01:14:09;;;;;;;4.17;2.37;;;;;;;;;;5032330;28;20181;-75
2021/08/23 01:17:13;;;;;;;3.67;2.33;;;;;;;;;;5012167;28;20514;-75
2021/08/23 01:20:17;;;;;;;7.13;2.73;;;;;;;;;;5022833;28;20182;-75
2021/08/23 01:23:22;;;;;;;6.43;3.00;;;;;;;;;;5011899;28;20193;-75
2021/08/23 01:26:33;;;;;;;7.00;2.90;;;;;;;;;;5024950;28;20213;-75
2021/08/23 01:30:10;;;;;;;4.20;2.50;;;;;;;;;;5011483;28;20513;-75
2021/08/23 01:33:15;;;;;;;6.07;2.80;;;;;;;;;;5000238;28;20189;-75
2021/08/23 01:36:19;;;;;;;5.23;3.10;;;;;;;;;;5013065;28;20201;-75
2021/08/23 01:39:22;;;;;;;4.77;3.20;;;;;;;;;;5000113;28;20197;-75
2021/08/23 01:42:27;;;;;;;5.27;3.20;;;;;;;;;;5011925;28;20213;-75
2021/08/23 01:45:31;;;;;;;4.37;2.70;;;;;;;;;;5011788;28;20181;-76
2021/08/23 01:48:36;;;;;;;7.50;3.57;;;;;;;;;;5011776;28;20675;-75
2021/08/23 01:51:40;;;;;;;5.50;3.47;;;;;;;;;;5011676;28;20216;-75
2021/08/23 01:54:44;;;;;;;7.53;3.30;;;;;;;;;;5001434;28;20182;-75
2021/08/23 01:57:48;;;;;;;10.03;3.67;;;;;;;;;;5033558;28;20173;-75
2021/08/23 02:00:53;;;;;;;6.07;3.20;;;;;;;;;;5035212;28;20224;-75
2021/08/23 02:03:57;;;;;;;4.53;3.23;;;;;;;;;;5015693;28;20193;-75
2021/08/23 02:07:01;;;;;;;4.13;2.80;;;;;;;;;;5015451;28;20205;-75
2021/08/23 02:10:07;;;;;;;7.00;3.63;;;;;;;;;;5021215;28;20196;-75
2021/08/23 02:13:11;;;;;;;4.80;3.13;;;;;;;;;;5031558;28;20687;-75
2021/08/23 02:16:15;;;;;;;4.63;3.10;;;;;;;;;;5027029;28;20188;-75
2021/08/23 02:19:19;;;;;;;5.00;3.17;;;;;;;;;;5015636;28;20617;-75
2021/08/23 02:22:23;;;;;;;10.60;3.57;;;;;;;;;;5021347;28;20683;-75
2021/08/23 02:25:27;;;;;;;5.23;3.47;;;;;;;;;;5021298;28;20193;-75
2021/08/23 02:28:31;;;;;;;8.00;3.43;;;;;;;;;;5034411;28;20201;-75
2021/08/23 02:31:36;;;;;;;5.83;3.10;;;;;;;;;;5033033;28;20208;-74
2021/08/23 02:34:40;;;;;;;6.77;3.53;;;;;;;;;;5033610;28;20176;-75
2021/08/23 02:37:44;;;;;;;6.27;3.20;;;;;;;;;;5027821;28;20193;-74
2021/08/23 02:40:48;;;;;;;8.43;3.13;;;;;;;;;;5033530;28;20220;-74
2021/08/23 02:43:52;;;;;;;6.17;3.50;;;;;;;;;;5034290;28;20185;-75
2021/08/23 02:46:56;;;;;;;10.70;3.20;;;;;;;;;;5013730;28;20208;-74
2021/08/23 02:50:01;;;;;;;4.43;3.30;;;;;;;;;;5014557;28;20181;-75
2021/08/23 02:53:05;;;;;;;5.37;3.27;;;;;;;;;;5014707;28;20181;-74
2021/08/23 02:56:09;;;;;;;6.37;3.67;;;;;;;;;;5014042;28;20189;-74
2021/08/23 02:59:13;;;;;;;6.80;3.60;;;;;;;;;;5014738;28;20204;-74
2021/08/23 03:02:17;;;;;;;7.40;3.50;;;;;;;;;;5014433;28;20221;-74
2021/08/23 03:05:21;;;;;;;6.90;3.17;;;;;;;;;;5026544;28;20204;-75
2021/08/23 03:08:25;;;;;;;7.30;3.13;;;;;;;;;;5014115;28;20549;-74
2021/08/23 03:11:30;;;;;;;6.37;3.37;;;;;;;;;;5022413;28;20216;-74
2021/08/23 03:14:34;;;;;;;10.50;3.40;;;;;;;;;;5020765;28;20185;-75
2021/08/23 03:17:39;;;;;;;7.77;3.50;;;;;;;;;;5033276;28;20169;-74
2021/08/23 03:20:43;;;;;;;6.03;3.07;;;;;;;;;;5012509;28;20225;-74
2021/08/23 03:23:47;;;;;;;6.30;3.30;;;;;;;;;;5014248;28;20177;-74
2021/08/23 03:26:51;;;;;;;3.93;2.83;;;;;;;;;;5013630;28;20186;-75
2021/08/23 03:29:55;;;;;;;5.70;3.03;;;;;;;;;;5013800;28;20205;-75
2021/08/23 03:32:59;;;;;;;8.40;3.77;;;;;;;;;;5031995;28;20204;-75
2021/08/23 03:36:04;;;;;;;6.17;3.33;;;;;;;;;;5023729;28;20538;-74
2021/08/23 03:39:10;;;;;;;5.80;3.27;;;;;;;;;;5013728;28;20197;-75
2021/08/23 03:42:14;;;;;;;4.17;2.97;;;;;;;;;;5013109;28;20229;-75
2021/08/23 03:45:18;;;;;;;5.30;2.70;;;;;;;;;;5024504;28;20180;-74
2021/08/23 03:48:22;;;;;;;5.30;3.40;;;;;;;;;;5032857;28;20213;-74
2021/08/23 03:51:28;;;;;;;6.83;3.23;;;;;;;;;;5017317;28;20217;-75
2021/08/23 03:54:31;;;;;;;6.37;3.30;;;;;;;;;;5005284;28;20185;-74
2021/08/23 03:57:36;;;;;;;5.27;3.17;;;;;;;;;;5033533;28;20177;-75
2021/08/23 04:00:40;;;;;;;6.23;3.20;;;;;;;;;;5032588;28;20212;-74
2021/08/23 04:03:44;;;;;;;3.80;3.10;;;;;;;;;;5033255;28;20521;-74
2021/08/23 04:06:49;;;;;;;6.67;3.13;;;;;;;;;;5013530;28;20190;-74
2021/08/23 04:09:53;;;;;;;6.43;3.30;;;;;;;;;;5013633;28;20194;-74
2021/08/23 04:12:57;;;;;;;5.87;3.40;;;;;;;;;;5001251;28;20213;-74
2021/08/23 04:16:03;;;;;;;4.50;3.10;;;;;;;;;;5028356;28;20196;-74
2021/08/23 04:19:07;;;;;;;5.20;3.50;;;;;;;;;;5032612;28;20173;-74
2021/08/23 04:22:11;;;;;;;6.67;3.70;;;;;;;;;;5033016;28;20208;-74
2021/08/23 04:25:15;;;;;;;4.80;3.30;;;;;;;;;;5023577;28;20193;-74
2021/08/23 04:28:19;;;;;;;4.90;3.43;;;;;;;;;;5012260;28;20229;-74
2021/08/23 04:31:24;;;;;;;5.13;3.23;;;;;;;;;;5013381;28;20221;-74
2021/08/23 04:34:28;;;;;;;5.17;3.47;;;;;;;;;;5012426;28;20628;-73
2021/08/23 04:37:32;;;;;;;4.03;3.33;;;;;;;;;;5013045;28;20186;-74
2021/08/23 04:40:37;;;;;;;7.97;3.87;;;;;;;;;;5022081;28;20221;-74
2021/08/23 04:43:41;;;;;;;6.00;3.70;;;;;;;;;;5012145;28;20173;-74
2021/08/23 04:46:49;;;;;;;5.37;3.13;;;;;;;;;;5013202;28;20182;-74
2021/08/23 04:49:53;;;;;;;8.23;3.43;;;;;;;;;;5012702;28;20189;-74
2021/08/23 04:52:57;;;;;;;4.97;3.70;;;;;;;;;;5012815;28;20541;-74
2021/08/23 04:56:08;;;;;;;4.40;3.50;;;;;;;;;;5013006;28;20198;-74
2021/08/23 04:59:12;;;;;;;7.23;3.30;;;;;;;;;;5012953;28;20190;-74
2021/08/23 05:02:16;;;;;;;7.37;3.93;;;;;;;;;;5012918;28;20217;-74
2021/08/23 05:05:20;;;;;;;5.20;3.50;;;;;;;;;;5013317;28;20185;-74
2021/08/23 05:08:24;;;;;;;6.17;3.73;;;;;;;;;;5020634;28;20221;-74
2021/08/23 05:11:29;;;;;;;5.20;3.63;;;;;;;;;;5016468;28;20679;-74
2021/08/23 05:14:33;;;;;;;3.87;3.43;;;;;;;;;;5030723;23;20233;-75
2021/08/23 05:17:37;;;;;;;3.73;3.30;;;;;;;;;;4995845;28;20182;-76
2021/08/23 05:20:41;;;;;;;4.97;3.27;;;;;;;;;;4992337;28;20214;-76
2021/08/23 05:23:45;;;;;;;6.10;3.47;;;;;;;;;;4992121;28;20506;-76
2021/08/23 05:26:50;;;;;;;4.73;3.10;;;;;;;;;;4983347;28;20191;-76
2021/08/23 05:29:55;;;;;;;4.30;3.17;;;;;;;;;;4977380;28;20203;-76
2021/08/23 05:33:00;;;;;;;4.43;3.10;;;;;;;;;;4991461;28;20190;-76
2021/08/23 05:36:04;;;;;;;5.83;3.13;;;;;;;;;;4981611;28;20183;-76
2021/08/23 05:39:07;;;;;;;4.30;2.97;;;;;;;;;;4978139;28;20178;-76
2021/08/23 05:42:12;;;;;;;5.87;3.17;;;;;;;;;;4976529;28;20218;-76
2021/08/23 05:45:16;;;;;;;5.83;3.17;;;;;;;;;;4978068;28;20191;-76
2021/08/23 05:48:20;;;;;;;7.93;3.53;;;;;;;;;;4996246;28;20550;-76
2021/08/23 05:51:24;;;;;;;4.47;3.30;;;;;;;;;;4976825;28;20222;-75
2021/08/23 05:54:28;;;;;;;5.30;3.17;;;;;;;;;;4976793;28;20182;-76
2021/08/23 05:57:33;;;;;;;5.50;3.13;;;;;;;;;;4995902;28;20190;-76
2021/08/23 06:00:37;;;;;;;5.43;3.10;;;;;;;;;;4995558;28;20222;-75
2021/08/23 06:03:41;;;;;;;6.53;3.07;;;;;;;;;;4996143;28;20190;-75
2021/08/23 06:06:45;;;;;;;4.93;3.00;;;;;;;;;;4994487;28;20190;-75
2021/08/23 06:09:49;;;;;;;8.73;3.37;;;;;;;;;;4985406;28;20218;-76
2021/08/23 06:12:53;;;;;;;6.17;3.70;;;;;;;;;;4991056;28;20194;-76
2021/08/23 06:15:57;;;;;;;3.87;2.60;;;;;;;;;;4989091;28;20190;-75
2021/08/23 06:19:02;;;;;;;4.27;2.40;;;;;;;;;;4989477;28;20194;-75
2021/08/23 06:22:06;;;;;;;4.10;2.73;;;;;;;;;;4980720;28;20218;-76
2021/08/23 06:25:11;;;;;;;3.80;2.70;;;;;;;;;;4976415;28;20539;-76
2021/08/23 06:28:15;;;;;;;4.70;2.77;;;;;;;;;;4979851;28;20210;-76
2021/08/23 06:31:19;;;;;;;4.97;2.60;;;;;;;;;;4974951;28;20579;-75
2021/08/23 06:34:23;;;;;;;5.70;2.70;;;;;;;;;;4976097;28;20183;-75
2021/08/23 06:37:27;;;;;;;3.40;3.10;;;;;;;;;;4993294;28;20190;-76
2021/08/23 06:40:31;;;;;;;4.20;2.53;;;;;;;;;;4975931;28;20186;-76
2021/08/23 06:43:35;;;;;;;4.83;2.87;;;;;;;;;;4975156;28;20182;-76
2021/08/23 06:46:39;;;;;;;6.07;2.63;;;;;;;;;;4987184;28;20535;-76
2021/08/23 06:49:44;;;;;;;4.33;3.30;;;;;;;;;;4979905;28;20689;-76
2021/08/23 06:52:48;;;;;;;4.67;2.60;;;;;;;;;;4975266;28;20183;-76
2021/08/23 06:55:52;;;;;;;4.93;2.73;;;;;;;;;;4980404;28;20178;-76
2021/08/23 06:58:56;;;;;;;4.60;2.60;;;;;;;;;;4991461;28;20197;-75
2021/08/23 07:02:01;;;;;;;3.63;2.93;;;;;;;;;;4994700;28;20226;-75
2021/08/23 07:05:05;;;;;;;5.70;2.83;;;;;;;;;;4993265;28;20525;-76
2021/08/23 07:08:10;;;;;;;4.70;2.77;;;;;;;;;;4975173;28;20215;-76
2021/08/23 07:11:14;;;;;;;4.50;2.70;;;;;;;;;;4975088;28;20218;-75
2021/08/23 07:14:18;;;;;;;8.80;3.10;;;;;;;;;;4976106;28;20214;-75
2021/08/23 07:17:22;;;;;;;3.33;2.70;;;;;;;;;;4979729;28;20194;-75
2021/08/23 07:20:26;;;;;;;4.43;2.77;;;;;;;;;;4989271;28;20663;-75
2021/08/23 07:23:31;;;;;;;3.37;2.70;;;;;;;;;;4998429;28;20198;-75
2021/08/23 07:26:36;;;;;;;4.67;2.60;;;;;;;;;;5010021;28;20186;-75
2021/08/23 07:29:40;;;;;;;4.77;2.87;;;;;;;;;;5003756;28;20688;-75
2021/08/23 07:32:45;;;;;;;2.83;2.40;;;;;;;;;;4994545;28;20186;-75
2021/08/23 07:35:49;;;;;;;2.90;2.47;;;;;;;;;;4994519;28;20190;-75
2021/08/23 07:38:54;;;;;;;4.97;2.90;;;;;;;;;;4999071;28;20197;-75
2021/08/23 07:41:58;;;;;;;4.40;2.73;;;;;;;;;;5013704;28;20220;-75
2021/08/23 07:45:02;;;;;;;3.40;2.57;;;;;;;;;;5001949;28;20177;-74
2021/08/23 07:48:06;;;;;;;4.73;2.87;;;;;;;;;;5014180;28;20186;-75
2021/08/23 07:51:11;;;;;;;6.33;4.20;;;;;;;;;;5013073;28;20216;-75
2021/08/23 07:54:18;;;;;;;3.57;2.80;;;;;;;;;;5001500;28;20181;-75
2021/08/23 07:57:22;;;;;;;4.20;2.47;;;;;;;;;;5013878;28;20177;-75
2021/08/23 08:00:26;;;;;;;5.87;2.53;;;;;;;;;;5013457;28;20193;-75
2021/08/23 08:03:30;;;;;;;4.43;2.40;;;;;;;;;;5024023;28;20529;-75
2021/08/23 08:06:35;;;;;;;5.03;2.60;;;;;;;;;;5014088;28;20177;-76
2021/08/23 08:09:39;;;;;;;4.23;2.97;;;;;;;;;;5012594;28;20569;-74
2021/08/23 08:12:44;;;;;;;4.87;3.00;;;;;;;;;;5013472;28;20196;-76
2021/08/23 08:15:48;;;;;;;4.10;2.60;;;;;;;;;;5004184;28;20201;-75
2021/08/23 08:18:54;;;;;;;4.60;2.77;;;;;;;;;;4994138;28;20174;-75
2021/08/23 08:22:04;;;;;;;4.13;3.40;;;;;;;;;;4993712;28;20230;-75
2021/08/23 08:25:08;;;;;;;5.13;2.77;;;;;;;;;;4982012;28;20179;-75
2021/08/23 08:28:12;;;;;;;2.93;2.53;;;;;;;;;;4993770;28;20179;-75
2021/08/23 08:31:16;;;;;;;4.07;2.67;;;;;;;;;;5012524;28;20688;-75
2021/08/23 08:34:20;;;;;;;5.03;2.57;;;;;;;;;;5012414;28;20201;-75
2021/08/23 08:37:25;;;;;;;2.93;2.13;;;;;;;;;;5013196;28;20201;-76
2021/08/23 08:40:29;;;;;;;4.27;2.50;;;;;;;;;;5014919;28;20177;-75
2021/08/23 08:43:33;;;;;;;3.73;2.23;;;;;;;;;;5016940;28;20181;-75
2021/08/23 08:46:38;;;;;;;2.73;2.20;;;;;;;;;;5004933;28;20177;-75
2021/08/23 08:49:42;;;;;;;3.80;2.70;;;;;;;;;;5016905;28;20217;-75
2021/08/23 08:52:46;;;;;;;7.30;2.70;;;;;;;;;;5017322;28;20186;-75
2021/08/23 08:55:50;;;;;;;2.90;2.50;;;;;;;;;;5013016;28;20201;-75
2021/08/23 08:58:54;;;;;;;4.13;2.93;;;;;;;;;;4987834;28;20182;-75
2021/08/23 09:01:58;;;;;;;5.33;2.80;;;;;;;;;;4996985;28;20217;-75
2021/08/23 09:05:16;;;;;;;3.93;2.80;;;;;;;;;;4997002;28;20182;-75
2021/08/23 09:08:29;;;;;;;3.83;3.03;;;;;;;;;;4997082;28;20190;-76
2021/08/23 09:11:32;;;;;;;3.97;2.80;;;;;;;;;;4997050;28;20562;-75
2021/08/23 09:14:48;;;;;;;5.70;2.80;;;;;;;;;;4996792;28;20210;-76
2021/08/23 09:18:08;;;;;;;4.10;3.30;;;;;;;;;;4976751;28;20191;-76
2021/08/23 09:21:13;;;;;;;3.97;3.13;;;;;;;;;;4976380;28;20215;-76
2021/08/23 09:24:19;;;;;;;5.13;3.40;;;;;;;;;;4977175;28;20187;-75
2021/08/23 09:27:23;;;;;;;3.83;3.03;;;;;;;;;;4976571;28;20186;-75
2021/08/23 09:30:27;;;;;;;3.67;2.57;;;;;;;;;;4976929;28;20211;-76
2021/08/23 09:33:41;;;;;;;4.27;2.90;;;;;;;;;;4976240;28;20191;-75
2021/08/23 09:36:55;;;;;;;6.07;2.80;;;;;;;;;;4977247;28;20515;-76
2021/08/23 09:40:10;;;;;;;6.47;2.80;;;;;;;;;;4976073;28;20631;-75
2021/08/23 09:43:18;;;;;;;4.97;2.80;;;;;;;;;;4976807;28;20186;-75
2021/08/23 09:46:23;;;;;;;4.20;2.77;;;;;;;;;;4977975;28;20191;-75
2021/08/23 09:49:37;;;;;;;3.87;2.37;;;;;;;;;;5001545;28;20214;-75
2021/08/23 09:52:41;;;;;;;6.07;3.20;;;;;;;;;;5004842;28;20569;-76
2021/08/23 09:55:52;;;;;;;3.13;2.70;;;;;;;;;;5009125;28;20194;-75
2021/08/23 09:58:56;;;;;;;3.47;2.80;;;;;;;;;;4996267;28;20178;-75
2021/08/23 10:02:02;;;;;;;4.37;2.83;;;;;;;;;;4995886;28;20570;-75
2021/08/23 10:05:06;;;;;;;3.57;2.53;;;;;;;;;;4996156;28;20182;-75
2021/08/23 10:08:20;;;;;;;3.67;2.63;;;;;;;;;;5004166;28;20201;-75
2021/08/23 10:11:24;;;;;;;3.40;3.00;;;;;;;;;;5015515;28;20209;-75
2021/08/23 10:14:29;;;;;;;6.00;2.83;;;;;;;;;;5015286;28;20205;-75
2021/08/23 10:17:37;;;;;;;4.20;3.03;;;;;;;;;;4987552;28;20189;-75
2021/08/23 10:20:41;;;;;;;3.63;2.67;;;;;;;;;;5015208;28;20561;-75
2021/08/23 10:23:48;;;;;;;3.10;2.80;;;;;;;;;;4985149;28;20190;-76
2021/08/23 10:26:53;;;;;;;4.03;2.57;;;;;;;;;;4987123;28;20186;-75
2021/08/23 10:29:57;;;;;;;4.40;2.90;;;;;;;;;;4987275;28;20203;-75
2021/08/23 10:33:11;;;;;;;5.33;2.40;;;;;;;;;;4991363;28;20534;-75
2021/08/23 10:36:17;;;;;;;5.83;3.03;;;;;;;;;;4963917;28;20202;-76
2021/08/23 10:39:23;;;;;;;3.17;2.60;;;;;;;;;;4980693;28;20200;-76
2021/08/23 10:42:40;;;;;;;3.70;3.10;;;;;;;;;;4975711;28;20222;-75
2021/08/23 10:45:44;;;;;;;5.33;2.67;;;;;;;;;;4993148;28;20202;-75
2021/08/23 10:48:49;;;;;;;4.20;2.77;;;;;;;;;;4976093;28;20195;-75
2021/08/23 10:51:57;;;;;;;4.17;2.40;;;;;;;;;;4975585;28;20229;-75
2021/08/23 10:55:05;;;;;;;2.47;2.07;;;;;;;;;;4980194;28;20194;-75
2021/08/23 10:58:10;;;;;;;3.70;2.50;;;;;;;;;;4994388;28;20632;-74
2021/08/23 11:01:23;;;;;;;3.93;2.50;;;;;;;;;;4978926;28;20223;-75
2021/08/23 11:04:32;;;;;;;3.03;2.73;;;;;;;;;;4994762;28;20188;-75
2021/08/23 11:07:40;;;;;;;3.53;2.47;;;;;;;;;;4994743;28;20198;-75
2021/08/23 11:10:44;;;;;;;3.43;2.67;;;;;;;;;;4991979;28;20567;-75
2021/08/23 11:13:57;;;;;;;2.50;2.30;;;;;;;;;;4989961;28;20212;-75
2021/08/23 11:17:01;;;;;;;3.23;2.47;;;;;;;;;;4942457;29;20207;-75
2021/08/23 11:20:08;;;;;;;2.80;2.50;;;;;;;;;;4944566;29;20189;-74
2021/08/23 11:23:14;;;;;;;2.83;2.40;;;;;;;;;;4936813;29;20186;-75
2021/08/23 11:26:24;;;;;;;3.73;2.27;;;;;;;;;;4943075;29;20183;-75
2021/08/23 11:29:30;;;;;;;3.87;2.50;;;;;;;;;;4955493;29;20248;-76
2021/08/23 11:32:34;;;;;;;3.17;2.20;;;;;;;;;;4952952;28;20225;-75
2021/08/23 11:35:39;;;;;;;3.10;2.27;;;;;;;;;;4953971;28;20293;-76
2021/08/23 11:38:43;;;;;;;4.13;2.30;;;;;;;;;;4954093;29;20202;-75
2021/08/23 11:41:58;;;;;;;5.23;2.30;;;;;;;;;;4937565;29;20215;-75
2021/08/23 11:45:04;;;;;;;2.40;2.20;;;;;;;;;;4935598;29;20184;-76
2021/08/23 11:48:09;;;;;;;3.53;2.47;;;;;;;;;;4948121;28;20691;-75
2021/08/23 11:51:13;;;;;;;5.50;2.23;;;;;;;;;;4945153;29;20222;-75
2021/08/23 11:54:18;;;;;;;2.83;2.40;;;;;;;;;;4932142;29;20647;-76
2021/08/23 11:57:27;;;;;;;3.50;2.70;;;;;;;;;;4937832;29;20204;-74
2021/08/23 12:00:32;;;;;;;5.30;3.03;;;;;;;;;;4937148;29;20192;-74
2021/08/23 12:03:37;;;;;;;4.87;3.53;;;;;;;;;;4932835;29;20195;-75
2021/08/23 12:06:42;;;;;;;4.60;3.20;;;;;;;;;;4938027;29;20530;-75
2021/08/23 12:09:58;;;;;;;6.33;3.20;;;;;;;;;;4951175;29;20579;-75
2021/08/23 12:13:17;;;;;;;5.17;3.20;;;;;;;;;;4951748;29;20184;-75
2021/08/23 12:16:34;;;;;;;4.40;3.53;;;;;;;;;;4939039;29;20203;-75
2021/08/23 12:19:38;;;;;;;3.93;3.07;;;;;;;;;;4955541;29;20188;-74
2021/08/23 12:22:42;;;;;;;3.97;3.37;;;;;;;;;;4955059;28;20214;-75
2021/08/23 12:25:47;;;;;;;5.23;3.27;;;;;;;;;;4965010;28;20207;-75
2021/08/23 12:28:56;;;;;;;4.97;3.60;;;;;;;;;;4937996;29;20199;-75
2021/08/23 12:32:08;;;;;;;4.40;3.27;;;;;;;;;;4954480;28;20223;-75
2021/08/23 12:35:12;;;;;;;3.33;2.80;;;;;;;;;;4937413;29;20180;-76
2021/08/23 12:38:16;;;;;;;5.20;3.20;;;;;;;;;;4937347;29;20204;-76
2021/08/23 12:41:20;;;;;;;3.60;2.80;;;;;;;;;;4936054;29;20224;-75
2021/08/23 12:44:25;;;;;;;4.33;2.63;;;;;;;;;;4951007;29;20199;-75
2021/08/23 12:47:31;;;;;;;3.77;2.67;;;;;;;;;;4939361;29;20208;-75
2021/08/23 12:50:35;;;;;;;7.47;2.80;;;;;;;;;;4946106;29;20219;-76
2021/08/23 12:53:43;;;;;;;3.17;2.47;;;;;;;;;;4948745;29;20208;-75
2021/08/23 12:56:49;;;;;;;3.70;2.40;;;;;;;;;;4944714;29;20532;-75
2021/08/23 12:59:53;;;;;;;3.03;2.40;;;;;;;;;;4940339;29;20910;-75
2021/08/23 13:02:57;;;;;;;4.27;2.67;;;;;;;;;;4949824;28;20203;-74
2021/08/23 13:06:01;;;;;;;4.00;2.80;;;;;;;;;;4948881;29;20200;-73
2021/08/23 13:09:05;;;;;;;3.50;2.73;;;;;;;;;;4951832;29;20538;-74
2021/08/23 13:12:10;;;;;;;4.97;3.23;;;;;;;;;;4947594;28;20216;-74
2021/08/23 13:15:14;;;;;;;4.67;2.87;;;;;;;;;;4932616;29;20215;-73
2021/08/23 13:18:21;;;;;;;4.10;3.33;;;;;;;;;;4950425;29;20207;-74
2021/08/23 13:21:28;;;;;;;3.77;2.77;;;;;;;;;;4949301;28;20212;-73
2021/08/23 13:24:34;;;;;;;3.13;2.83;;;;;;;;;;4939365;29;20654;-74
2021/08/23 13:27:38;;;;;;;4.37;2.97;;;;;;;;;;4945411;29;20658;-75
2021/08/23 13:30:42;;;;;;;3.87;2.70;;;;;;;;;;4963113;28;20227;-74
2021/08/23 13:33:47;;;;;;;5.70;2.57;;;;;;;;;;4936043;29;20536;-74
2021/08/23 13:36:51;;;;;;;4.00;3.03;;;;;;;;;;4949990;29;20839;-74
2021/08/23 13:39:55;;;;;;;3.30;2.77;;;;;;;;;;4949359;29;20195;-74
2021/08/23 13:43:00;;;;;;;3.03;2.40;;;;;;;;;;4938588;29;20191;-74
2021/08/23 13:46:04;;;;;;;4.23;2.90;;;;;;;;;;4951030;29;20667;-74
2021/08/23 13:49:08;;;;;;;3.03;2.67;;;;;;;;;;4945460;29;20726;-75
2021/08/23 13:52:12;;;;;;;4.60;2.80;;;;;;;;;;4934856;29;20215;-74
2021/08/23 13:55:16;;;;;;;3.30;2.57;;;;;;;;;;4928908;29;20535;-74
2021/08/23 13:58:21;;;;;;;3.93;2.90;;;;;;;;;;4953242;29;20191;-74
2021/08/23 14:01:25;;;;;;;3.00;2.57;;;;;;;;;;4925636;29;20216;-74
2021/08/23 14:04:31;;;;;;;3.97;2.77;;;;;;;;;;4941748;29;20196;-74
2021/08/23 14:07:36;;;;;;;4.70;3.17;;;;;;;;;;4934791;29;20195;-74
2021/08/23 14:10:40;;;;;;;3.00;2.33;;;;;;;;;;4946889;28;20227;-74
2021/08/23 14:13:44;;;;;;;5.23;3.03;;;;;;;;;;4934592;29;20203;-74
2021/08/23 14:16:48;;;;;;;5.53;2.90;;;;;;;;;;4944610;28;20208;-74
2021/08/23 14:19:52;;;;;;;3.63;3.17;;;;;;;;;;4934664;29;20199;-73
2021/08/23 14:22:56;;;;;;;9.47;3.60;;;;;;;;;;4948334;29;20199;-73
2021/08/23 14:26:01;;;;;;;3.87;3.40;;;;;;;;;;4942500;29;20200;-73
2021/08/23 14:29:05;;;;;;;5.43;3.20;;;;;;;;;;4938183;29;20203;-73
2021/08/23 14:32:09;;;;;;;4.00;3.47;;;;;;;;;;4943539;29;20257;-73
2021/08/23 14:35:13;;;;;;;4.37;3.40;;;;;;;;;;4937089;29;20184;-73
2021/08/23 14:38:17;;;;;;;4.37;3.40;;;;;;;;;;4933797;29;20192;-73
2021/08/23 14:41:21;;;;;;;5.37;4.00;;;;;;;;;;4934846;29;20318;-73
2021/08/23 14:44:26;;;;;;;5.57;3.70;;;;;;;;;;4944554;29;20188;-73
2021/08/23 14:47:30;;;;;;;4.33;3.60;;;;;;;;;;4921866;29;20244;-72
2021/08/23 14:50:34;;;;;;;4.97;4.03;;;;;;;;;;4932784;29;20212;-73
2021/08/23 14:53:38;;;;;;;4.60;3.80;;;;;;;;;;4932736;29;20207;-73
2021/08/23 14:56:42;;;;;;;6.90;4.53;;;;;;;;;;4938966;29;20200;-73
2021/08/23 14:59:46;;;;;;;4.80;3.63;;;;;;;;;;4931067;29;20528;-72
2021/08/23 15:02:51;;;;;;;4.23;3.83;;;;;;;;;;4927085;29;20192;-73
2021/08/23 15:05:55;;;;;;;5.03;3.73;;;;;;;;;;4915958;29;20188;-73
2021/08/23 15:08:59;;;;;;;3.73;2.93;;;;;;;;;;4914510;29;20192;-73
2021/08/23 15:12:06;;;;;;;4.20;3.77;;;;;;;;;;4922855;29;20232;-73
2021/08/23 15:15:10;;;;;;;4.63;3.73;;;;;;;;;;4924154;29;20220;-73
2021/08/23 15:18:15;;;;;;;4.77;3.97;;;;;;;;;;4931712;29;20208;-73
2021/08/23 15:21:19;;;;;;;5.00;4.37;;;;;;;;;;4915193;29;20224;-73
2021/08/23 15:24:23;;;;;;;5.10;4.47;;;;;;;;;;4914134;29;20193;-73
2021/08/23 15:27:28;;;;;;;6.27;4.77;;;;;;;;;;4941779;29;20196;-72
2021/08/23 15:30:35;;;;;;;5.83;4.70;;;;;;;;;;4932962;29;20196;-72
2021/08/23 15:33:39;;;;;;;6.37;5.10;;;;;;;;;;4938995;29;20750;-72
2021/08/23 15:36:43;;;;;;;5.27;4.47;;;;;;;;;;4943009;29;20199;-73
2021/08/23 15:39:51;;;;;;;5.73;4.63;;;;;;;;;;4933049;29;20184;-72
2021/08/23 15:42:57;;;;;;;7.67;4.63;;;;;;;;;;4930757;29;20192;-72
2021/08/23 15:46:03;;;;;;;5.63;5.03;;;;;;;;;;4941760;29;20623;-72
2021/08/23 15:49:07;;;;;;;6.43;5.57;;;;;;;;;;4942740;29;20192;-73
2021/08/23 15:52:12;;;;;;;7.23;5.20;;;;;;;;;;4919765;29;20223;-73
2021/08/23 15:55:16;;;;;;;7.47;5.53;;;;;;;;;;4942282;29;20196;-73
2021/08/23 15:58:21;;;;;;;8.33;5.63;;;;;;;;;;4932409;29;20548;-73
2021/08/23 16:01:25;;;;;;;6.83;5.87;;;;;;;;;;4920054;29;20220;-72
2021/08/23 16:04:30;;;;;;;6.40;5.43;;;;;;;;;;4920551;29;20199;-73
2021/08/23 16:07:35;;;;;;;8.03;6.30;;;;;;;;;;4923722;29;20185;-73
2021/08/23 16:10:39;;;;;;;8.07;6.67;;;;;;;;;;4931460;29;21116;-73
2021/08/23 16:13:44;;;;;;;6.40;5.70;;;;;;;;;;4928098;29;20187;-73
2021/08/23 16:16:48;;;;;;;13.23;6.03;;;;;;;;;;4926295;29;20548;-73
2021/08/23 16:19:53;;;;;;;6.57;5.93;;;;;;;;;;4924823;29;20644;-73
2021/08/23 16:23:00;;;;;;;7.33;6.20;;;;;;;;;;4935255;29;20192;-73
2021/08/23 16:26:04;;;;;;;8.10;6.77;;;;;;;;;;4917718;29;20197;-74
2021/08/23 16:29:08;;;;;;;7.37;6.67;;;;;;;;;;4923813;29;20518;-74
2021/08/23 16:32:12;;;;;;;10.30;6.90;;;;;;;;;;4913072;29;20233;-74
2021/08/23 16:35:16;;;;;;;7.80;6.80;;;;;;;;;;4931863;29;20203;-73
2021/08/23 16:38:21;;;;;;;7.37;6.53;;;;;;;;;;4913510;29;20193;-74
2021/08/23 16:41:25;;;;;;;7.57;6.63;;;;;;;;;;4928326;29;20224;-74
2021/08/23 16:44:30;;;;;;;7.17;6.47;;;;;;;;;;4942627;29;20196;-75
2021/08/23 16:47:34;;;;;;;7.40;6.23;;;;;;;;;;4926313;29;20193;-76
2021/08/23 16:50:39;;;;;;;7.17;6.47;;;;;;;;;;4917288;29;20565;-76
2021/08/23 16:53:43;;;;;;;6.97;6.27;;;;;;;;;;4913335;29;20193;-75
2021/08/23 16:56:47;;;;;;;7.00;6.30;;;;;;;;;;4922535;29;20196;-75
2021/08/23 16:59:51;;;;;;;8.73;6.17;;;;;;;;;;4940954;29;20536;-75
2021/08/23 17:02:55;;;;;;;7.77;6.10;;;;;;;;;;4945941;29;20180;-75
2021/08/23 17:06:00;;;;;;;6.03;5.43;;;;;;;;;;4933886;29;20192;-75
2021/08/23 17:09:04;;;;;;;6.37;5.77;;;;;;;;;;4935592;29;20188;-74
2021/08/23 17:12:08;;;;;;;6.37;5.53;;;;;;;;;;4920853;29;20580;-74
2021/08/23 17:15:14;;;;;;;7.07;6.37;;;;;;;;;;4917835;29;20212;-74
2021/08/23 17:18:19;;;;;;;6.73;5.80;;;;;;;;;;4925513;29;20242;-74
2021/08/23 17:21:23;;;;;;;6.60;5.90;;;;;;;;;;4934497;29;20219;-74
2021/08/23 17:24:28;;;;;;;8.13;6.00;;;;;;;;;;4932348;29;20695;-74
2021/08/23 17:27:32;;;;;;;7.07;6.10;;;;;;;;;;4945415;29;20180;-74
2021/08/23 17:30:36;;;;;;;7.00;5.87;;;;;;;;;;4935132;29;20200;-74
2021/08/23 17:33:40;;;;;;;6.13;5.53;;;;;;;;;;4933840;29;20580;-74
2021/08/23 17:36:45;;;;;;;6.10;5.50;;;;;;;;;;4945095;29;20200;-73
2021/08/23 17:39:49;;;;;;;7.77;5.27;;;;;;;;;;4944578;29;20532;-73
2021/08/23 17:42:53;;;;;;;6.97;5.33;;;;;;;;;;4942753;29;20184;-74
2021/08/23 17:45:57;;;;;;;6.20;5.60;;;;;;;;;;4925960;29;20196;-73
2021/08/23 17:49:01;;;;;;;7.93;5.13;;;;;;;;;;4925718;29;20192;-74
2021/08/23 17:52:07;;;;;;;6.60;5.43;;;;;;;;;;4915981;29;20224;-73
2021/08/23 17:55:11;;;;;;;5.57;4.77;;;;;;;;;;4915817;29;20557;-74
2021/08/23 17:58:15;;;;;;;4.80;4.30;;;;;;;;;;4932757;29;20203;-73
2021/08/23 18:01:19;;;;;;;4.37;3.97;;;;;;;;;;4944652;29;20228;-73
2021/08/23 18:04:24;;;;;;;4.80;4.03;;;;;;;;;;4933725;29;20199;-73
2021/08/23 18:07:28;;;;;;;4.87;4.37;;;;;;;;;;4934330;29;20607;-72
2021/08/23 18:10:32;;;;;;;3.80;3.50;;;;;;;;;;4930272;29;20192;-73
2021/08/23 18:13:36;;;;;;;5.33;4.20;;;;;;;;;;4933758;29;20180;-73
2021/08/23 18:16:40;;;;;;;3.60;3.30;;;;;;;;;;4923899;29;20185;-74
2021/08/23 18:19:44;;;;;;;3.50;3.20;;;;;;;;;;4933872;29;20199;-73
2021/08/23 18:22:49;;;;;;;5.67;3.43;;;;;;;;;;4944101;29;20192;-74
2021/08/23 18:25:53;;;;;;;3.10;2.80;;;;;;;;;;4933416;29;20204;-73
2021/08/23 18:28:58;;;;;;;3.43;3.13;;;;;;;;;;4933690;29;20203;-74
2021/08/23 18:32:02;;;;;;;3.47;3.17;;;;;;;;;;4933827;29;20231;-74